Time;durP1;ratioP1;P1;durP2;ratioP2;P2;SDS_P1;SDS_P2;PMS_P1;PMS_P2;Temp;Humidity;BMP_temperature;BMP_pressure;BME280_temperature;BME280_humidity;BME280_pressure;Samples;Min_cycle;Max_cycle;Signal;HPM_P1;HPM_P2
2023/10/13 00:01:22;;;;;;;;;;;;;;;9.06;100.00;98077.69;5068551;28;20046;-37
2023/10/13 00:03:49;;;;;;;1.88;0.65;;;;;;;9.08;100.00;98080.22;5066779;28;19916;-35
2023/10/13 00:06:15;;;;;;;2.85;0.60;;;;;;;9.05;100.00;98090.78;5065173;28;20047;-43
2023/10/13 00:08:41;;;;;;;3.55;1.00;;;;;;;8.83;100.00;98058.22;5057620;28;20083;-36
2023/10/13 00:11:12;;;;;;;7.35;0.90;;;;;;;9.04;100.00;98094.28;5067010;28;20040;-37
2023/10/13 00:13:50;;;;;;;3.85;0.70;;;;;;;9.05;100.00;98090.78;5065957;28;20472;-37
2023/10/13 00:16:21;;;;;;;2.13;0.80;;;;;;;9.15;100.00;98102.31;5066227;28;20041;-37
2023/10/13 00:18:50;;;;;;;2.35;0.70;;;;;;;9.23;100.00;98098.38;5075223;28;20044;-37
2023/10/13 00:21:30;;;;;;;4.45;1.20;;;;;;;9.25;100.00;98085.34;5065986;28;20136;-36
2023/10/13 00:24:00;;;;;;;3.10;0.75;;;;;;;9.32;100.00;98103.06;5071911;28;20407;-37
2023/10/13 00:26:28;;;;;;;3.42;0.98;;;;;;;9.35;100.00;98102.91;5047913;28;20084;-37
2023/10/13 00:29:01;;;;;;;4.32;1.42;;;;;;;9.41;100.00;98104.34;5065582;28;20037;-37
2023/10/13 00:31:33;;;;;;;1.63;0.85;;;;;;;9.45;100.00;98099.81;5066826;28;20127;-38
2023/10/13 00:34:18;;;;;;;3.78;0.80;;;;;;;9.49;100.00;98102.13;5065511;28;20041;-36
2023/10/13 00:37:41;;;;;;;1.83;0.52;;;;;;;9.52;98.54;98107.19;5036564;28;20059;-37
2023/10/13 00:39:30;;;;;;;2.15;0.80;;;;;;;9.56;98.56;98108.66;5056178;28;20048;-37
2023/10/13 00:42:06;;;;;;;2.92;0.80;;;;;;;9.58;96.94;98111.16;5065518;28;20106;-37
2023/10/13 00:44:41;;;;;;;1.70;0.60;;;;;;;9.60;96.78;98106.72;5065721;28;20040;-37
2023/10/13 00:47:11;;;;;;;1.33;0.35;;;;;;;9.65;95.34;98117.69;5057993;28;20098;-38
2023/10/13 00:49:39;;;;;;;2.60;0.90;;;;;;;9.45;95.11;98085.09;5063704;28;20044;-37
2023/10/13 00:52:09;;;;;;;3.97;0.82;;;;;;;9.66;94.62;98111.59;5025344;28;20552;-36
2023/10/13 00:54:37;;;;;;;6.00;0.82;;;;;;;9.65;94.85;98125.47;5047891;28;20040;-37
2023/10/13 00:57:26;;;;;;;2.00;0.60;;;;;;;9.48;94.54;98097.88;5064370;28;20535;-37
2023/10/13 00:59:57;;;;;;;2.58;0.43;;;;;;;9.67;93.61;98129.69;5050182;28;20651;-37
2023/10/13 01:02:41;;;;;;;1.42;0.50;;;;;;;9.69;93.21;98122.63;5065228;28;20032;-36
2023/10/13 01:05:19;;;;;;;5.68;0.82;;;;;;;9.53;93.43;98090.66;5077983;28;20139;-37
2023/10/13 01:07:52;;;;;;;5.05;0.93;;;;;;;9.74;93.29;98132.75;5065077;28;20522;-38
2023/10/13 01:10:19;;;;;;;0.63;0.40;;;;;;;9.74;92.26;98132.75;5065867;28;20129;-37
2023/10/13 01:12:52;;;;;;;2.80;0.50;;;;;;;9.73;92.47;98131.91;5048850;28;20028;-36
2023/10/13 01:15:21;;;;;;;4.25;0.60;;;;;;;9.72;91.83;98132.84;5065397;28;20047;-37
2023/10/13 01:17:48;;;;;;;3.42;0.63;;;;;;;9.71;91.60;98151.09;5065048;28;20044;-37
2023/10/13 01:20:24;;;;;;;0.80;0.32;;;;;;;9.46;91.94;98104.06;5056718;28;20032;-38
2023/10/13 01:22:55;;;;;;;2.55;0.85;;;;;;;9.67;91.79;98140.06;5047396;28;20257;-37
2023/10/13 01:25:26;;;;;;;7.47;1.00;;;;;;;9.68;91.29;98139.09;5062456;28;20119;-37
2023/10/13 01:27:53;;;;;;;5.45;0.70;;;;;;;9.70;91.66;98147.66;5069848;28;20117;-38
2023/10/13 01:30:24;;;;;;;1.50;0.60;;;;;;;9.72;91.68;98150.19;5066593;28;20466;-37
2023/10/13 01:32:53;;;;;;;5.03;1.50;;;;;;;9.72;91.85;98155.38;5067147;28;20044;-36
2023/10/13 01:35:26;;;;;;;5.93;0.88;;;;;;;9.82;92.03;98169.50;5070135;28;20044;-37
2023/10/13 01:37:52;;;;;;;4.13;0.82;;;;;;;9.91;92.13;98157.75;5069007;28;20044;-37
2023/10/13 01:40:20;;;;;;;2.25;0.70;;;;;;;9.89;91.95;98146.66;5044996;28;20123;-37
2023/10/13 01:42:46;;;;;;;4.22;0.70;;;;;;;9.78;91.47;98155.88;5069717;28;20167;-38
2023/10/13 01:45:13;;;;;;;7.07;0.70;;;;;;;9.54;91.45;98127.81;5068414;28;20048;-38
2023/10/13 01:47:39;;;;;;;2.55;0.70;;;;;;;9.57;91.59;98140.66;5054787;28;20481;-36
2023/10/13 01:50:14;;;;;;;2.35;0.70;;;;;;;9.59;91.84;98146.56;5067678;28;20040;-37
2023/10/13 01:52:41;;;;;;;3.83;0.88;;;;;;;9.52;92.15;98140.91;5037426;28;20039;-37
2023/10/13 01:55:11;;;;;;;3.75;1.00;;;;;;;9.42;92.94;98124.13;5068234;28;20048;-36
2023/10/13 01:57:37;;;;;;;2.83;0.93;;;;;;;9.59;93.77;98149.16;5068694;28;20036;-36
2023/10/13 02:00:18;;;;;;;3.67;0.93;;;;;;;9.55;94.12;98153.69;5067586;28;20051;-37
2023/10/13 02:02:49;;;;;;;2.67;0.60;;;;;;;9.54;94.03;98156.34;5053311;28;20044;-37
2023/10/13 02:05:17;;;;;;;3.50;0.70;;;;;;;9.22;93.47;98108.81;5068016;28;20401;-36
2023/10/13 02:07:46;;;;;;;1.90;0.40;;;;;;;9.51;93.60;98164.31;5066666;28;20056;-37
2023/10/13 02:10:13;;;;;;;2.15;1.00;;;;;;;9.44;93.18;98152.59;5060082;28;20123;-37
2023/10/13 02:12:44;;;;;;;6.07;1.23;;;;;;;9.39;93.12;98170.16;5068045;28;20389;-37
2023/10/13 02:15:26;;;;;;;2.30;0.68;;;;;;;9.39;93.51;98164.97;5067834;28;20534;-37
2023/10/13 02:17:54;;;;;;;4.38;1.00;;;;;;;9.37;93.34;98162.44;5074381;28;20136;-39
2023/10/13 02:20:24;;;;;;;3.30;0.90;;;;;;;9.34;93.17;98163.47;5060237;28;20049;-36
2023/10/13 02:22:54;;;;;;;3.92;0.80;;;;;;;9.30;92.93;98167.16;5065666;28;20032;-37
2023/10/13 02:25:37;;;;;;;4.10;0.73;;;;;;;9.24;93.56;98156.25;5048755;28;20488;-37
2023/10/13 02:28:07;;;;;;;5.88;0.80;;;;;;;9.02;92.74;98137.56;5064441;28;20703;-36
2023/10/13 02:30:38;;;;;;;4.63;1.00;;;;;;;8.87;92.67;98129.69;5069019;28;20032;-37
2023/10/13 02:33:06;;;;;;;3.50;1.40;;;;;;;8.92;92.70;98155.38;5068753;28;20453;-37
2023/10/13 02:35:41;;;;;;;1.38;0.50;;;;;;;9.10;92.33;98175.16;5067396;28;20037;-38
2023/10/13 02:38:11;;;;;;;3.05;0.60;;;;;;;9.09;92.70;98185.59;5065273;28;20185;-36
2023/10/13 02:40:40;;;;;;;4.43;0.88;;;;;;;9.05;91.54;98195.28;5068751;28;20079;-35
2023/10/13 02:43:06;;;;;;;5.30;1.42;;;;;;;9.01;92.09;98192.91;5067419;28;20071;-37
2023/10/13 02:45:36;;;;;;;1.13;0.73;;;;;;;9.03;92.10;98198.88;5068762;28;20078;-37
2023/10/13 02:48:17;;;;;;;;;;;;;;;9.07;91.29;98190.84;5064605;28;20119;-37
2023/10/13 02:50:45;;;;;;;5.60;1.00;;;;;;;9.01;90.92;98200.69;5066042;28;20306;-37
2023/10/13 02:53:13;;;;;;;2.17;0.55;;;;;;;8.96;91.15;98200.09;5083690;28;20040;-36
2023/10/13 02:55:52;;;;;;;6.38;0.88;;;;;;;8.75;91.35;98176.13;5045643;28;20056;-36
2023/10/13 02:58:18;;;;;;;;;;;;;;;8.95;91.35;98199.25;5062929;28;20516;-37
2023/10/13 03:00:46;;;;;;;7.65;0.80;;;;;;;8.77;91.21;98172.53;5082584;28;19916;-36
2023/10/13 03:03:14;;;;;;;7.35;0.93;;;;;;;8.83;91.21;98181.75;5083815;28;20044;-38
2023/10/13 03:05:42;;;;;;;0.93;0.45;;;;;;;9.10;91.04;98216.63;5065584;28;20122;-37
2023/10/13 03:08:10;;;;;;;4.90;0.82;;;;;;;9.19;90.48;98208.38;5049743;28;20032;-37
2023/10/13 03:10:45;;;;;;;2.80;0.88;;;;;;;9.04;89.97;98203.13;5066758;28;20048;-36
2023/10/13 03:13:11;;;;;;;4.65;0.80;;;;;;;9.09;90.51;98214.94;5067069;28;20540;-37
2023/10/13 03:15:37;;;;;;;2.95;0.80;;;;;;;9.04;90.91;98211.75;5064791;28;20127;-37
2023/10/13 03:18:03;;;;;;;5.05;0.90;;;;;;;9.01;90.92;98218.84;5067075;28;20040;-37
2023/10/13 03:20:32;;;;;;;1.67;0.60;;;;;;;8.97;91.17;98212.97;5067017;28;20040;-37
2023/10/13 03:22:58;;;;;;;3.92;0.73;;;;;;;8.90;91.34;98185.69;5064473;28;20032;-37
2023/10/13 03:30:30;;;;;;;2.92;1.27;;;;;;;9.11;90.84;98215.69;5067454;28;20048;-37
2023/10/13 03:32:57;;;;;;;3.85;1.10;;;;;;;9.07;90.91;98221.13;5065371;28;20036;-37
2023/10/13 03:35:24;;;;;;;2.80;0.90;;;;;;;9.00;90.49;98220.63;5047683;28;20044;-36
2023/10/13 03:37:51;;;;;;;4.35;0.90;;;;;;;8.90;90.73;98225.41;5066053;28;20440;-37
2023/10/13 03:45:47;;;;;;;5.05;1.05;;;;;;;8.83;91.83;98252.56;5062005;28;19920;-37
2023/10/13 03:51:10;;;;;;;5.45;0.65;;;;;;;8.86;91.63;98251.56;5065978;28;20428;-37
2023/10/13 03:53:59;;;;;;;4.47;0.75;;;;;;;8.86;91.20;98265.34;5054057;28;20063;-37
2023/10/13 03:56:26;;;;;;;1.55;0.50;;;;;;;8.86;90.63;98274.88;5064230;28;20048;-36
2023/10/13 03:58:54;;;;;;;5.30;0.82;;;;;;;8.86;91.13;98277.47;5064405;28;20377;-38
2023/10/13 04:01:31;;;;;;;5.82;1.42;;;;;;;8.62;90.57;98230.31;5046857;28;20424;-37
2023/10/13 04:04:04;;;;;;;6.18;1.00;;;;;;;9.04;90.39;98281.75;5063810;28;20480;-38
2023/10/13 04:17:22;;;;;;;7.05;1.42;;;;;;;8.77;89.96;98268.41;5063367;28;20124;-37
2023/10/13 04:41:39;;;;;;;3.78;1.27;;;;;;;9.10;85.43;98320.31;5062348;28;20143;-37
2023/10/13 04:49:35;;;;;;;7.90;1.40;;;;;;;9.04;84.38;98314.59;5064779;28;20646;-37
2023/10/13 05:46:49;;;;;;;3.72;0.98;;;;;;;10.18;76.72;98458.34;5063911;28;20044;-37
2023/10/13 06:30:00;;;;;;;2.58;0.60;;;;;;;11.88;64.76;98518.25;5066559;28;20036;-37
2023/10/13 06:32:27;;;;;;;3.53;0.98;;;;;;;12.35;64.15;98517.22;5066402;28;20033;-37
2023/10/13 06:34:57;;;;;;;1.90;0.52;;;;;;;13.62;62.21;98524.00;5067083;28;20036;-37
2023/10/13 06:37:32;;;;;;;1.83;0.50;;;;;;;13.66;59.00;98500.19;5050467;28;20093;-37
2023/10/13 06:40:22;;;;;;;1.80;0.65;;;;;;;14.48;56.71;98530.44;5064310;28;20040;-37
2023/10/13 06:42:49;;;;;;;5.25;0.70;;;;;;;15.00;56.16;98497.09;5064543;28;20174;-37
2023/10/13 06:45:17;;;;;;;3.83;0.68;;;;;;;15.79;54.81;98535.84;5065056;28;20052;-37
2023/10/13 06:47:43;;;;;;;1.02;0.50;;;;;;;15.92;51.81;98538.38;5032972;28;20044;-38
2023/10/13 06:50:16;;;;;;;2.45;0.95;;;;;;;16.36;51.55;98535.06;5064643;28;20127;-38
2023/10/13 06:52:49;;;;;;;6.57;1.00;;;;;;;17.07;49.75;98544.41;5062544;28;20033;-38
2023/10/13 06:55:23;;;;;;;3.95;0.68;;;;;;;16.92;47.86;98543.81;5044668;28;20516;-38
2023/10/13 06:57:51;;;;;;;2.22;0.75;;;;;;;17.47;46.47;98548.16;5060790;28;20071;-36
2023/10/13 07:00:29;;;;;;;3.72;0.63;;;;;;;17.63;46.85;98546.00;5048662;28;20090;-37
2023/10/13 07:03:05;;;;;;;1.63;0.65;;;;;;;17.55;46.72;98552.78;5065066;28;20040;-37
2023/10/13 07:05:38;;;;;;;2.67;0.47;;;;;;;17.41;45.68;98566.22;5064111;28;20055;-37
2023/10/13 07:08:08;;;;;;;4.72;0.60;;;;;;;16.30;46.64;98559.97;5064319;28;20766;-36
2023/10/13 07:10:48;;;;;;;1.70;1.00;;;;;;;16.33;46.98;98578.06;5080699;28;20150;-36
2023/10/13 07:13:16;;;;;;;2.05;0.80;;;;;;;15.68;47.28;98535.81;5062493;28;20036;-36
2023/10/13 07:15:45;;;;;;;1.73;0.73;;;;;;;15.25;47.79;98557.22;5076953;28;20068;-36
2023/10/13 07:18:22;;;;;;;2.13;0.55;;;;;;;15.06;48.52;98583.03;5066433;28;20040;-38
2023/10/13 07:20:48;;;;;;;2.22;0.50;;;;;;;14.64;49.80;98586.00;5066250;28;20032;-37
2023/10/13 07:23:17;;;;;;;2.60;0.80;;;;;;;14.56;50.11;98591.72;5065807;28;20040;-38
2023/10/13 07:25:54;;;;;;;2.05;0.70;;;;;;;14.41;50.24;98603.22;5065474;28;20075;-37
2023/10/13 07:28:20;;;;;;;2.00;0.43;;;;;;;13.48;50.27;98537.97;5064321;28;20572;-36
2023/10/13 07:31:08;;;;;;;2.38;0.50;;;;;;;13.61;50.63;98598.91;5066480;28;20097;-36
2023/10/13 07:33:34;;;;;;;1.20;0.40;;;;;;;14.14;49.49;98597.19;5065321;28;20492;-36
2023/10/13 07:36:11;;;;;;;3.33;0.60;;;;;;;13.61;50.64;98605.94;5066795;28;20044;-36
2023/10/13 07:38:42;;;;;;;2.30;0.55;;;;;;;13.55;51.64;98620.19;5065130;28;20066;-39
2023/10/13 07:41:09;;;;;;;2.60;0.60;;;;;;;14.13;50.62;98619.88;5067006;28;20032;-37
2023/10/13 07:43:39;;;;;;;1.40;0.60;;;;;;;13.76;51.06;98613.63;5042997;28;20082;-37
2023/10/13 07:46:12;;;;;;;2.97;0.57;;;;;;;14.83;50.07;98626.47;5061986;28;20044;-37
2023/10/13 07:48:40;;;;;;;6.05;0.82;;;;;;;16.84;47.05;98638.09;5066213;28;20032;-37
2023/10/13 07:51:13;;;;;;;4.68;0.57;;;;;;;18.16;43.70;98631.00;5062423;28;20401;-36
2023/10/13 07:53:40;;;;;;;2.70;0.60;;;;;;;17.60;42.73;98661.88;5035696;28;20032;-36
2023/10/13 07:56:12;;;;;;;2.58;0.57;;;;;;;16.16;44.47;98645.88;5064050;28;20040;-36
2023/10/13 07:59:00;;;;;;;1.45;0.65;;;;;;;15.37;45.75;98647.16;5064174;28;20086;-37
2023/10/13 08:01:27;;;;;;;3.20;0.68;;;;;;;14.45;47.05;98604.69;5051423;28;20067;-38
2023/10/13 08:06:48;;;;;;;2.55;0.57;;;;;;;14.17;47.54;98659.75;5056550;28;20079;-38
2023/10/13 08:09:30;;;;;;;1.67;0.75;;;;;;;14.51;47.35;98666.22;5066400;28;20040;-36
2023/10/13 08:11:56;;;;;;;0.80;0.57;;;;;;;15.61;45.22;98666.41;5063290;28;20032;-37
2023/10/13 08:14:23;;;;;;;2.83;0.77;;;;;;;15.19;45.86;98685.94;5065719;28;20084;-37
2023/10/13 08:16:52;;;;;;;3.65;0.68;;;;;;;14.89;45.74;98684.59;5050356;28;20040;-37
2023/10/13 08:19:27;;;;;;;1.23;0.73;;;;;;;14.87;46.12;98697.75;5064539;28;20044;-36
2023/10/13 08:21:58;;;;;;;1.40;0.50;;;;;;;14.20;47.19;98696.97;5065794;28;20102;-39
2023/10/13 08:24:55;;;;;;;6.38;0.77;;;;;;;13.92;47.63;98658.69;5066774;28;20035;-37
2023/10/13 08:32:54;;;;;;;5.45;0.75;;;;;;;16.99;42.24;98701.72;5066630;28;20044;-37
2023/10/13 08:37:59;;;;;;;2.95;0.60;;;;;;;17.10;42.11;98728.84;5051676;28;20083;-37
2023/10/13 08:41:25;;;;;;;3.75;0.90;;;;;;;17.70;41.65;98727.72;5068461;28;20040;-37
2023/10/13 08:43:44;;;;;;;2.83;0.68;;;;;;;18.13;40.42;98731.25;5068571;28;20037;-37
2023/10/13 08:46:26;;;;;;;1.30;0.63;;;;;;;19.03;39.00;98752.81;5068459;28;20115;-37
2023/10/13 08:49:17;;;;;;;8.18;0.80;;;;;;;18.18;39.02;98742.22;5071317;28;20032;-37
2023/10/13 08:51:43;;;;;;;3.05;0.68;;;;;;;17.80;39.14;98754.94;5038373;28;20128;-37
2023/10/13 08:54:20;;;;;;;1.70;0.50;;;;;;;17.56;38.56;98731.41;5069337;28;20711;-38
2023/10/13 08:56:56;;;;;;;2.50;1.02;;;;;;;18.33;38.18;98755.94;5070178;28;20040;-37
2023/10/13 08:59:33;;;;;;;3.17;0.50;;;;;;;19.13;37.15;98739.69;5069936;28;20048;-39
2023/10/13 09:02:15;;;;;;;1.48;0.47;;;;;;;19.64;36.17;98750.25;5063828;28;20044;-37
2023/10/13 09:04:46;;;;;;;2.33;0.60;;;;;;;19.53;36.38;98758.25;5070201;28;20036;-37
2023/10/13 09:07:15;;;;;;;3.22;0.70;;;;;;;18.99;36.51;98715.38;5068981;28;20052;-37
2023/10/13 09:12:20;;;;;;;2.67;0.80;;;;;;;20.91;34.84;98765.25;5068081;28;20139;-37
2023/10/13 09:14:56;;;;;;;3.17;0.57;;;;;;;22.39;33.29;98763.53;5068301;28;20127;-38
2023/10/13 09:20:22;;;;;;;1.38;0.80;;;;;;;22.26;32.12;98778.09;5068871;28;20059;-38
2023/10/13 09:23:45;;;;;;;1.90;0.70;;;;;;;23.07;31.55;98771.81;5065882;28;20098;-37
2023/10/13 09:25:38;;;;;;;3.05;0.75;;;;;;;23.33;30.54;98773.66;5048121;28;20053;-36
2023/10/13 09:28:14;;;;;;;2.08;0.85;;;;;;;23.99;29.93;98757.94;5069920;28;20059;-37
2023/10/13 09:30:56;;;;;;;3.13;0.70;;;;;;;23.71;29.34;98783.06;5058503;28;20531;-38
2023/10/13 09:33:36;;;;;;;3.47;0.82;;;;;;;22.37;30.85;98785.84;5066036;28;20036;-37
2023/10/13 09:36:06;;;;;;;2.80;0.77;;;;;;;23.43;29.42;98798.25;5051653;28;20097;-39
2023/10/13 09:38:34;;;;;;;5.63;0.82;;;;;;;22.98;29.43;98775.38;5069798;28;20056;-37
2023/10/13 09:41:17;;;;;;;2.20;0.80;;;;;;;23.77;29.47;98809.78;5063638;28;20060;-37
2023/10/13 09:43:45;;;;;;;3.17;0.90;;;;;;;23.62;29.03;98812.19;5065067;28;20040;-38
2023/10/13 09:46:18;;;;;;;2.70;0.98;;;;;;;24.44;27.97;98822.22;5067824;28;20055;-38
2023/10/13 09:48:46;;;;;;;2.80;0.85;;;;;;;24.95;27.20;98820.38;5068324;28;20052;-38
2023/10/13 09:51:19;;;;;;;3.63;0.77;;;;;;;23.42;27.93;98828.44;5049067;28;20036;-38
2023/10/13 09:53:58;;;;;;;1.58;0.80;;;;;;;22.60;29.29;98829.50;5065725;28;20413;-37
2023/10/13 09:56:28;;;;;;;1.30;0.70;;;;;;;22.70;29.31;98847.97;5045138;28;20419;-38
2023/10/13 09:59:12;;;;;;;1.15;0.70;;;;;;;22.58;29.17;98820.84;5065342;28;20427;-39
2023/10/13 10:01:51;;;;;;;3.78;0.80;;;;;;;23.38;28.60;98829.72;5062606;28;20052;-37
2023/10/13 10:04:22;;;;;;;1.35;0.90;;;;;;;25.10;27.35;98791.28;5052120;28;20443;-38
2023/10/13 10:06:56;;;;;;;2.15;0.90;;;;;;;26.00;25.99;98830.13;5067478;28;20044;-38
2023/10/13 10:09:37;;;;;;;1.50;0.90;;;;;;;26.22;25.50;98837.41;5067675;28;20054;-37
2023/10/13 10:12:18;;;;;;;1.75;0.88;;;;;;;27.30;25.09;98846.28;5065902;28;20037;-38
2023/10/13 10:15:30;;;;;;;2.40;0.80;;;;;;;26.51;25.09;98836.75;5065794;28;20058;-38
2023/10/13 10:17:56;;;;;;;1.70;0.52;;;;;;;25.71;25.32;98841.31;5067723;28;20074;-37
2023/10/13 10:20:39;;;;;;;2.08;0.90;;;;;;;22.94;28.33;98829.69;5060343;28;20478;-38
2023/10/13 10:23:09;;;;;;;4.22;0.60;;;;;;;22.36;29.67;98848.56;5074429;28;20071;-37
2023/10/13 10:25:37;;;;;;;4.75;0.85;;;;;;;23.33;28.85;98854.06;5064786;28;20044;-38
2023/10/13 10:28:05;;;;;;;1.23;0.65;;;;;;;23.41;28.90;98859.44;5067245;28;20040;-37
2023/10/13 10:30:38;;;;;;;2.33;0.82;;;;;;;25.13;27.54;98868.91;5066431;28;20101;-37
2023/10/13 10:33:12;;;;;;;2.47;0.90;;;;;;;26.54;26.33;98866.56;5059672;28;20557;-36
2023/10/13 10:35:40;;;;;;;1.98;0.40;;;;;;;26.41;25.08;98868.97;5061277;28;20773;-37
2023/10/13 10:38:32;;;;;;;1.65;0.50;;;;;;;23.21;27.17;98877.34;5053594;28;20071;-36
2023/10/13 10:41:03;;;;;;;1.90;0.40;;;;;;;21.87;28.55;98870.91;5062177;28;20047;-36
2023/10/13 10:43:43;;;;;;;0.63;0.30;;;;;;;21.16;29.57;98877.53;5061384;28;20139;-37
2023/10/13 10:46:12;;;;;;;3.50;0.85;;;;;;;21.01;30.53;98881.53;5059405;28;20148;-37
2023/10/13 10:48:42;;;;;;;2.60;0.63;;;;;;;21.70;30.15;98887.53;5061250;28;20083;-38
2023/10/13 10:51:23;;;;;;;0.90;0.50;;;;;;;22.41;28.08;98861.38;5059666;28;20127;-38
2023/10/13 10:53:51;;;;;;;3.22;0.73;;;;;;;22.34;28.33;98914.13;5058912;28;20400;-38
2023/10/13 10:56:25;;;;;;;1.85;0.82;;;;;;;23.09;27.60;98906.88;5060290;28;20131;-37
2023/10/13 10:58:56;;;;;;;2.92;0.70;;;;;;;24.19;26.75;98892.19;5062103;28;20048;-39
2023/10/13 11:01:24;;;;;;;5.32;0.63;;;;;;;24.04;26.34;98888.41;5056621;28;20512;-36
2023/10/13 11:03:57;;;;;;;1.30;0.60;;;;;;;24.48;26.09;98913.94;5061347;28;20048;-38
2023/10/13 11:06:27;;;;;;;1.20;0.60;;;;;;;24.63;25.85;98915.97;5062460;28;20376;-38
2023/10/13 11:09:04;;;;;;;1.90;0.70;;;;;;;24.98;25.54;98910.47;5061325;28;20554;-36
2023/10/13 11:11:35;;;;;;;1.05;0.45;;;;;;;25.35;24.86;98890.56;5054681;28;20782;-38
2023/10/13 11:14:22;;;;;;;5.63;0.60;;;;;;;25.65;24.52;98909.38;5059405;28;20530;-37
2023/10/13 11:16:59;;;;;;;2.42;0.80;;;;;;;25.24;25.04;98918.31;5060042;28;20132;-36
2023/10/13 11:19:40;;;;;;;2.72;0.70;;;;;;;24.46;25.56;98926.53;5057563;28;20047;-36
2023/10/13 11:22:29;;;;;;;2.20;0.70;;;;;;;22.83;27.50;98901.47;5060927;28;20512;-37
2023/10/13 11:24:59;;;;;;;3.22;0.77;;;;;;;22.08;28.41;98939.56;5059144;28;20089;-39
2023/10/13 11:30:14;;;;;;;2.72;0.77;;;;;;;20.61;29.94;98942.38;5057186;28;20036;-39
2023/10/13 11:32:43;;;;;;;1.40;0.90;;;;;;;20.86;29.46;98943.69;5057075;28;20089;-39
2023/10/13 11:35:23;;;;;;;;;;;;;;;21.45;28.77;98944.50;5060737;28;20940;-46
2023/10/13 11:38:25;;;;;;;3.70;0.57;;;;;;;20.56;30.32;98937.50;5060450;28;19916;-36
2023/10/13 11:43:31;;;;;;;3.75;0.90;;;;;;;19.47;30.85;98919.63;5046912;28;20049;-37
2023/10/13 11:48:38;;;;;;;1.65;0.63;;;;;;;19.01;32.18;98952.31;5064937;28;20067;-36
2023/10/13 11:51:17;;;;;;;1.15;0.50;;;;;;;18.06;32.98;98958.06;5065270;28;20036;-36
2023/10/13 11:53:51;;;;;;;1.63;0.57;;;;;;;17.68;33.82;98946.06;5065971;28;20040;-37
2023/10/13 11:56:20;;;;;;;0.77;0.40;;;;;;;17.53;34.05;98956.84;5049373;28;20059;-36
2023/10/13 11:58:47;;;;;;;3.38;0.43;;;;;;;17.19;34.61;98946.16;5065001;28;20040;-35
2023/10/13 12:11:50;;;;;;;1.38;0.70;;;;;;;16.57;36.64;98955.06;5061328;28;20044;-36
2023/10/13 12:15:09;;;;;;;5.78;0.47;;;;;;;16.36;37.07;98952.16;5046226;28;20952;-37
2023/10/13 12:17:10;;;;;;;4.78;0.60;;;;;;;16.10;37.32;98952.16;5058185;28;20413;-36
2023/10/13 12:19:38;;;;;;;1.27;0.70;;;;;;;15.99;37.96;98945.97;5057882;28;20041;-36
2023/10/13 12:22:09;;;;;;;1.90;0.40;;;;;;;15.77;37.81;98950.97;5064351;28;20050;-36
2023/10/13 12:27:01;;;;;;;3.97;0.60;;;;;;;15.14;38.63;98928.06;5047470;28;20040;-37
2023/10/13 12:29:30;;;;;;;3.63;0.70;;;;;;;14.76;38.62;98915.66;5062670;28;20036;-37
2023/10/13 12:32:08;;;;;;;1.55;0.65;;;;;;;15.07;38.79;98956.41;5063461;28;20048;-35
2023/10/13 12:38:05;;;;;;;1.35;0.63;;;;;;;15.49;38.24;98952.78;5055305;28;20041;-37
2023/10/13 12:53:55;;;;;;;3.83;0.85;;;;;;;15.36;38.95;98974.66;5060512;28;20044;-38
2023/10/13 12:56:28;;;;;;;0.80;0.60;;;;;;;15.11;39.65;98983.25;5060782;28;20534;-37
2023/10/13 12:58:54;;;;;;;2.13;0.63;;;;;;;14.95;40.13;98982.56;5079001;28;20090;-37
2023/10/13 13:01:22;;;;;;;3.10;0.65;;;;;;;14.84;40.45;98981.44;5075836;28;20122;-37
2023/10/13 13:03:49;;;;;;;3.03;0.65;;;;;;;14.76;40.73;98982.84;5065411;28;20169;-36
2023/10/13 13:06:17;;;;;;;2.17;0.57;;;;;;;14.69;40.86;98982.41;5065043;28;20044;-37
2023/10/13 13:08:44;;;;;;;2.50;0.75;;;;;;;14.59;40.95;98989.16;5061776;28;20089;-37
2023/10/13 13:11:11;;;;;;;2.45;0.73;;;;;;;14.50;41.18;98994.94;5061342;28;20898;-36
2023/10/13 13:13:37;;;;;;;2.67;1.58;;;;;;;14.16;41.45;98949.06;5063334;28;20054;-36
2023/10/13 13:16:07;;;;;;;3.47;0.50;;;;;;;14.07;41.84;98964.47;5059714;28;20427;-37
2023/10/13 13:18:34;;;;;;;3.97;0.95;;;;;;;14.16;42.32;98992.66;5051176;28;20040;-36
2023/10/13 13:21:02;;;;;;;3.67;0.60;;;;;;;14.08;42.87;98998.31;5063095;28;20053;-36
2023/10/13 13:23:31;;;;;;;1.20;0.30;;;;;;;14.02;42.96;99003.94;5066633;28;20041;-37
2023/10/13 13:25:56;;;;;;;6.68;1.10;;;;;;;13.64;42.97;98956.53;5065831;28;20036;-36
2023/10/13 13:28:24;;;;;;;2.92;0.95;;;;;;;13.89;43.35;99000.34;5035268;28;20045;-36
2023/10/13 13:30:54;;;;;;;2.33;0.80;;;;;;;13.88;43.66;99002.13;5048709;28;20036;-35
2023/10/13 13:33:25;;;;;;;5.05;0.70;;;;;;;13.67;43.58;98981.63;5063589;28;20044;-36
2023/10/13 13:35:55;;;;;;;2.65;0.70;;;;;;;13.73;43.71;99003.03;5068360;28;20460;-38
2023/10/13 13:38:30;;;;;;;3.03;0.50;;;;;;;13.65;43.96;99009.63;5062740;28;20040;-38
2023/10/13 13:40:56;;;;;;;3.33;0.60;;;;;;;13.57;44.16;99013.50;5049489;28;20055;-37
2023/10/13 13:43:35;;;;;;;2.70;0.52;;;;;;;13.52;44.05;99004.25;5057036;28;20051;-37
2023/10/13 13:46:02;;;;;;;1.20;0.63;;;;;;;13.32;44.15;99004.53;5048357;28;20048;-41
2023/10/13 13:48:28;;;;;;;1.65;0.43;;;;;;;13.36;44.48;99035.59;5066861;28;20036;-38
2023/10/13 13:51:04;;;;;;;0.52;0.35;;;;;;;13.28;44.82;99040.44;5066005;28;20048;-37
2023/10/13 13:53:34;;;;;;;1.63;0.50;;;;;;;13.22;44.94;99034.69;5067529;28;20036;-38
2023/10/13 13:56:02;;;;;;;4.85;0.70;;;;;;;13.16;45.40;99041.09;5079309;28;20044;-37
2023/10/13 13:58:29;;;;;;;2.63;0.82;;;;;;;13.11;45.63;99053.53;5067047;28;20094;-36
2023/10/13 14:01:25;;;;;;;2.78;0.75;;;;;;;12.85;45.90;99020.19;5051361;28;20124;-36
2023/10/13 14:03:52;;;;;;;2.33;0.52;;;;;;;12.80;46.57;99022.19;5063616;28;20547;-37
2023/10/13 14:06:23;;;;;;;2.65;0.70;;;;;;;12.89;46.60;99059.06;5062231;28;20063;-36
2023/10/13 14:08:51;;;;;;;6.40;0.65;;;;;;;12.83;46.79;99056.78;5048224;28;20047;-38
2023/10/13 14:14:11;;;;;;;0.90;0.60;;;;;;;12.67;47.44;99066.34;5065840;28;20139;-37
2023/10/13 14:16:46;;;;;;;5.70;0.50;;;;;;;12.40;47.25;99037.34;5059587;28;20055;-36
2023/10/13 14:19:13;;;;;;;5.05;0.70;;;;;;;12.54;47.63;99076.59;5062930;28;20063;-37
2023/10/13 14:21:39;;;;;;;2.72;0.77;;;;;;;12.24;47.60;99042.53;5065138;28;20037;-39
2023/10/13 14:24:13;;;;;;;1.92;1.05;;;;;;;12.44;48.12;99087.56;5063188;28;20085;-38
2023/10/13 14:26:39;;;;;;;2.72;0.88;;;;;;;12.39;48.35;99092.16;5066854;28;20042;-37
2023/10/13 14:29:08;;;;;;;4.63;0.73;;;;;;;12.34;48.43;99094.16;5061301;28;20159;-38
2023/10/13 14:31:39;;;;;;;6.45;0.77;;;;;;;12.26;48.50;99103.22;5064638;28;20097;-38
2023/10/13 14:34:06;;;;;;;5.75;1.63;;;;;;;12.20;48.77;99092.25;5062617;28;20047;-38
2023/10/13 14:36:35;;;;;;;2.13;0.85;;;;;;;11.99;49.07;99072.47;5064295;28;20044;-38
2023/10/13 14:39:02;;;;;;;;;;;;;;;12.10;49.25;99099.69;5046079;28;20054;-37
2023/10/13 14:41:29;;;;;;;3.72;0.90;;;;;;;12.00;49.43;99108.88;5065479;28;19939;-39
2023/10/13 14:44:04;;;;;;;2.08;0.52;;;;;;;11.97;49.86;99105.59;5064345;28;20087;-38
2023/10/13 14:46:31;;;;;;;2.38;0.80;;;;;;;11.96;49.75;99111.72;5074888;28;20128;-37
2023/10/13 14:48:57;;;;;;;1.60;0.70;;;;;;;11.93;49.93;99112.72;5048134;28;20090;-38
2023/10/13 14:51:25;;;;;;;2.08;0.50;;;;;;;11.86;50.43;99117.38;5063836;28;20526;-37
2023/10/13 14:53:55;;;;;;;3.15;0.70;;;;;;;11.85;50.58;99125.25;5063423;28;20036;-50
2023/10/13 14:56:26;;;;;;;1.40;0.65;;;;;;;11.82;50.61;99125.41;5055146;28;20048;-38
2023/10/13 14:58:52;;;;;;;2.63;0.80;;;;;;;11.41;50.35;99070.91;5062178;28;20044;-38
2023/10/13 15:01:24;;;;;;;8.57;0.88;;;;;;;11.74;50.81;99141.41;5059953;28;20045;-37
2023/10/13 15:03:58;;;;;;;5.03;0.98;;;;;;;11.71;50.69;99149.34;5061973;28;20097;-37
2023/10/13 15:06:28;;;;;;;4.50;0.93;;;;;;;11.65;51.33;99151.38;5059022;28;20040;-38
2023/10/13 15:08:56;;;;;;;4.18;1.02;;;;;;;11.61;51.54;99152.44;5062515;28;20044;-38
2023/10/13 15:11:38;;;;;;;2.90;1.40;;;;;;;11.54;51.58;99153.63;5060496;28;20454;-37
2023/10/13 15:14:08;;;;;;;5.20;1.10;;;;;;;11.48;51.87;99147.78;5053583;28;20082;-37
2023/10/13 15:16:34;;;;;;;5.28;1.42;;;;;;;11.23;52.33;99116.03;5060936;28;20592;-38
2023/10/13 15:19:02;;;;;;;3.15;1.13;;;;;;;11.37;52.13;99144.00;5052410;28;20039;-38
2023/10/13 15:21:36;;;;;;;9.10;1.30;;;;;;;11.33;52.38;99156.31;5060139;28;20091;-37
2023/10/13 15:24:04;;;;;;;2.90;1.10;;;;;;;11.30;52.85;99153.03;5062006;28;20336;-37